Time;durP1;ratioP1;P1;durP2;ratioP2;P2;SDS_P1;SDS_P2;PMS_P1;PMS_P2;Temp;Humidity;BMP_temperature;BMP_pressure;BME280_temperature;BME280_humidity;BME280_pressure;Samples;Min_cycle;Max_cycle;Signal;HPM_P1;HPM_P2
2021/12/28 00:01:03;;;;;;;5.72;2.50;;;;;;;19.02;24.34;99724.16;5127013;27;20032;-63
2021/12/28 00:03:29;;;;;;;4.60;2.78;;;;;;;19.04;24.37;99727.50;5128029;27;20446;-64
2021/12/28 00:05:55;;;;;;;4.20;2.80;;;;;;;19.02;24.45;99730.34;5125087;27;20037;-64
2021/12/28 00:08:20;;;;;;;5.60;3.00;;;;;;;19.04;24.20;99735.56;5128080;27;20038;-64
2021/12/28 00:10:47;;;;;;;3.72;2.60;;;;;;;19.04;24.52;99738.22;5128014;27;20030;-64
2021/12/28 00:13:15;;;;;;;3.20;2.38;;;;;;;19.01;24.33;99728.66;5128614;27;20401;-66
2021/12/28 00:16:12;;;;;;;5.70;2.83;;;;;;;19.01;24.36;99733.19;5133466;27;20054;-65
2021/12/28 00:18:37;;;;;;;3.42;2.35;;;;;;;19.00;24.33;99739.56;5130828;27;20079;-64
2021/12/28 00:21:05;;;;;;;4.00;2.85;;;;;;;19.00;24.25;99731.53;5115773;27;20038;-63
2021/12/28 00:23:39;;;;;;;3.60;2.72;;;;;;;19.00;24.26;99721.63;5130558;27;20038;-64
2021/12/28 00:26:11;;;;;;;4.72;2.88;;;;;;;19.01;24.34;99736.72;5130473;27;20029;-64
2021/12/28 00:28:37;;;;;;;7.07;2.80;;;;;;;19.03;24.27;99740.06;5126153;27;20078;-63
2021/12/28 00:31:04;;;;;;;4.25;3.20;;;;;;;19.04;24.39;99733.69;5131413;28;20039;-64
2021/12/28 00:33:29;;;;;;;5.55;3.53;;;;;;;19.06;24.51;99738.88;5131049;28;20038;-64
2021/12/28 00:35:55;;;;;;;4.65;3.45;;;;;;;19.06;24.22;99742.41;5132115;28;20045;-64
2021/12/28 00:38:23;;;;;;;4.10;2.90;;;;;;;19.06;24.56;99738.88;5131136;28;20508;-64
2021/12/28 00:40:51;;;;;;;6.15;3.10;;;;;;;19.05;23.93;99739.88;5129975;28;20371;-65
2021/12/28 00:43:17;;;;;;;4.53;2.63;;;;;;;19.06;24.23;99741.56;5117920;28;20067;-65
2021/12/28 00:45:43;;;;;;;3.67;2.50;;;;;;;19.08;24.45;99742.22;5130389;28;20443;-65
2021/12/28 00:48:09;;;;;;;3.78;3.00;;;;;;;19.08;24.41;99744.91;5128588;28;20031;-66
2021/12/28 00:50:35;;;;;;;4.10;2.38;;;;;;;19.05;24.25;99734.50;5130382;28;20023;-65
2021/12/28 00:53:00;;;;;;;3.95;2.60;;;;;;;19.05;24.38;99737.19;5116643;27;20060;-64
2021/12/28 00:55:26;;;;;;;4.50;2.65;;;;;;;19.04;24.50;99735.56;5121238;27;20119;-64
2021/12/28 00:57:53;;;;;;;3.33;2.25;;;;;;;19.02;24.45;99730.34;5128689;27;20106;-65
2021/12/28 01:00:22;;;;;;;3.58;2.65;;;;;;;19.05;24.29;99737.19;5122042;27;20363;-65
2021/12/28 01:02:49;;;;;;;3.35;2.53;;;;;;;19.04;24.25;99735.56;5134248;27;20027;-67
2021/12/28 01:05:15;;;;;;;3.17;2.20;;;;;;;19.01;24.25;99731.34;5125215;27;20030;-66
2021/12/28 01:07:40;;;;;;;3.58;2.35;;;;;;;19.01;24.20;99742.06;5134404;27;20033;-64
2021/12/28 01:10:10;;;;;;;2.97;2.10;;;;;;;19.01;24.11;99743.94;5129549;27;20110;-64
2021/12/28 01:12:35;;;;;;;3.03;2.25;;;;;;;19.02;24.34;99746.44;5132283;27;20354;-65
2021/12/28 01:15:02;;;;;;;4.43;2.97;;;;;;;19.00;24.12;99745.75;5136554;27;20033;-66
2021/12/28 01:17:27;;;;;;;3.50;2.45;;;;;;;19.00;24.24;99745.75;5130381;27;20125;-65
2021/12/28 01:19:53;;;;;;;3.28;2.53;;;;;;;18.96;23.95;99755.16;5136415;27;20236;-66
2021/12/28 01:22:19;;;;;;;5.95;2.70;;;;;;;18.91;23.85;99755.63;5132181;27;20038;-67
2021/12/28 01:24:44;;;;;;;4.78;2.58;;;;;;;18.87;23.70;99759.69;5134604;27;20038;-66
2021/12/28 01:27:10;;;;;;;3.88;2.95;;;;;;;18.85;23.78;99761.69;5135374;27;20105;-64
2021/12/28 01:29:35;;;;;;;4.45;2.85;;;;;;;18.81;23.86;99756.84;5135588;27;20473;-65
2021/12/28 01:32:01;;;;;;;4.25;2.65;;;;;;;18.77;23.85;99761.69;5129865;27;20034;-62
2021/12/28 01:34:27;;;;;;;3.20;2.42;;;;;;;18.75;23.65;99761.00;5127131;27;20147;-66
2021/12/28 01:36:53;;;;;;;3.75;2.78;;;;;;;18.72;23.68;99767.53;5119117;27;20197;-65
2021/12/28 01:39:19;;;;;;;4.55;2.35;;;;;;;18.72;23.69;99774.75;5117633;27;20482;-64
2021/12/28 01:41:44;;;;;;;3.40;2.40;;;;;;;18.67;23.79;99777.09;5116583;27;20035;-65
2021/12/28 01:44:12;;;;;;;2.78;1.88;;;;;;;18.64;23.45;99772.94;5119870;27;20031;-64
2021/12/28 01:46:38;;;;;;;2.95;1.90;;;;;;;18.60;23.73;99775.06;5117210;27;20039;-65
2021/12/28 01:49:07;;;;;;;4.00;2.67;;;;;;;18.60;23.68;99780.44;5131062;27;20363;-67
2021/12/28 01:51:33;;;;;;;2.80;2.08;;;;;;;18.59;23.88;99773.44;5128776;27;20394;-66
2021/12/28 01:53:59;;;;;;;4.07;2.72;;;;;;;18.59;23.65;99784.16;5131150;27;20023;-65
2021/12/28 01:56:36;;;;;;;4.43;3.08;;;;;;;18.58;23.57;99787.84;5133574;27;20041;-66
2021/12/28 01:59:03;;;;;;;3.80;2.03;;;;;;;18.55;23.75;99790.00;5133252;27;20023;-65
2021/12/28 02:01:30;;;;;;;3.72;2.50;;;;;;;18.58;23.81;99785.16;5125889;27;20027;-65
2021/12/28 02:03:55;;;;;;;3.60;2.55;;;;;;;18.55;23.72;99790.84;5102758;28;20126;-66
2021/12/28 02:06:25;;;;;;;3.20;2.78;;;;;;;18.53;24.09;99789.34;5114879;27;20114;-67
2021/12/28 02:08:52;;;;;;;2.75;2.13;;;;;;;18.54;23.78;99793.66;5131786;27;20015;-65
2021/12/28 02:11:18;;;;;;;2.70;2.13;;;;;;;18.54;23.69;99791.00;5132771;27;20035;-64
2021/12/28 02:13:43;;;;;;;4.47;2.63;;;;;;;18.52;23.93;99791.16;5114987;27;20520;-64
2021/12/28 02:16:09;;;;;;;3.95;2.50;;;;;;;18.50;23.93;99790.50;5118136;27;20031;-65
2021/12/28 02:18:35;;;;;;;3.95;2.83;;;;;;;18.51;23.80;99794.03;5096575;28;20056;-66
2021/12/28 02:21:03;;;;;;;3.25;2.30;;;;;;;18.51;23.90;99802.88;5122726;27;20036;-66
2021/12/28 02:23:29;;;;;;;3.72;2.40;;;;;;;18.48;23.71;99800.53;5128012;27;20091;-67
2021/12/28 02:25:55;;;;;;;3.28;2.10;;;;;;;18.49;23.90;99810.25;5132703;27;20497;-65
2021/12/28 02:28:21;;;;;;;3.47;2.22;;;;;;;18.49;23.77;99810.25;5126208;27;20066;-66
2021/12/28 02:30:53;;;;;;;3.72;2.53;;;;;;;18.49;24.04;99812.94;5132198;27;20150;-68
2021/12/28 02:33:23;;;;;;;3.38;2.33;;;;;;;18.47;23.82;99806.06;5132761;27;20039;-66
2021/12/28 02:35:49;;;;;;;3.22;2.50;;;;;;;18.45;23.75;99804.38;5133087;27;20425;-68
2021/12/28 02:38:15;;;;;;;2.60;1.98;;;;;;;18.48;23.87;99807.75;5133110;27;20062;-68
2021/12/28 02:40:43;;;;;;;3.65;2.45;;;;;;;18.47;23.89;99816.78;5133569;27;20050;-66
2021/12/28 02:43:12;;;;;;;3.50;2.35;;;;;;;18.45;24.25;99815.09;5132224;27;20832;-66
2021/12/28 02:45:47;;;;;;;3.72;2.15;;;;;;;18.45;23.99;99806.25;5130630;27;20035;-68
2021/12/28 02:48:12;;;;;;;3.35;2.05;;;;;;;18.43;24.01;99811.75;5132100;27;20042;-67
2021/12/28 02:50:43;;;;;;;2.53;2.10;;;;;;;18.43;23.76;99821.66;5115725;27;20031;-66
2021/12/28 02:53:10;;;;;;;2.55;1.88;;;;;;;18.43;23.98;99821.66;5123513;27;20057;-66
2021/12/28 02:55:39;;;;;;;3.13;2.15;;;;;;;18.44;23.73;99826.81;5129169;27;20431;-66
2021/12/28 02:58:10;;;;;;;3.63;2.30;;;;;;;18.45;23.84;99825.81;5125538;27;20050;-64
2021/12/28 03:00:48;;;;;;;3.13;2.10;;;;;;;18.44;23.88;99829.50;5132107;27;20031;-66
2021/12/28 03:03:21;;;;;;;2.85;1.83;;;;;;;18.46;23.84;99840.03;5132523;27;20488;-65
2021/12/28 03:05:50;;;;;;;3.55;2.10;;;;;;;18.45;24.03;99836.53;5132589;27;20031;-66
2021/12/28 03:08:18;;;;;;;2.97;1.95;;;;;;;18.44;23.83;99834.03;5130067;27;20045;-65
2021/12/28 03:10:45;;;;;;;2.65;1.90;;;;;;;18.41;24.03;99835.19;5131939;27;20062;-65
2021/12/28 03:13:17;;;;;;;2.75;1.92;;;;;;;18.40;23.93;99832.69;5132444;27;20494;-65
2021/12/28 03:15:43;;;;;;;3.47;2.20;;;;;;;18.37;23.78;99830.31;5122360;27;20115;-66
2021/12/28 03:18:09;;;;;;;3.55;2.35;;;;;;;18.34;23.81;99828.81;5117687;27;20450;-64
2021/12/28 03:20:35;;;;;;;4.75;2.00;;;;;;;18.35;23.74;99833.19;5123465;27;20035;-65
2021/12/28 03:23:01;;;;;;;3.65;2.30;;;;;;;18.36;23.86;99834.00;5129700;27;20019;-64
2021/12/28 03:25:26;;;;;;;2.50;1.85;;;;;;;18.33;23.80;99834.34;5130108;27;20534;-66
2021/12/28 03:27:52;;;;;;;3.25;2.00;;;;;;;18.34;24.00;99838.69;5124787;27;20032;-67
2021/12/28 03:30:18;;;;;;;3.50;2.28;;;;;;;18.34;23.86;99838.69;5119981;27;20553;-64
2021/12/28 03:32:43;;;;;;;4.30;2.50;;;;;;;18.33;23.70;99831.66;5113873;27;20030;-65
2021/12/28 03:35:12;;;;;;;5.72;2.25;;;;;;;18.33;23.74;99835.19;5127678;27;20110;-67
2021/12/28 03:37:38;;;;;;;3.60;2.22;;;;;;;18.32;23.81;99833.50;5131512;27;20027;-65
2021/12/28 03:40:06;;;;;;;3.03;2.05;;;;;;;18.32;23.83;99838.88;5117519;27;20035;-67
2021/12/28 03:42:32;;;;;;;3.60;2.45;;;;;;;18.33;23.73;99831.66;5105480;28;20039;-67
2021/12/28 03:44:58;;;;;;;3.40;2.25;;;;;;;18.35;23.63;99824.28;5118849;27;20473;-67
2021/12/28 03:47:24;;;;;;;3.38;2.03;;;;;;;18.36;23.97;99837.53;5117176;27;20035;-66
2021/12/28 03:49:49;;;;;;;5.07;2.42;;;;;;;18.35;23.98;99830.50;5130968;27;20031;-67
2021/12/28 03:52:15;;;;;;;3.72;2.17;;;;;;;18.36;23.69;99836.69;5129513;27;20405;-65
2021/12/28 03:54:40;;;;;;;2.47;1.80;;;;;;;18.35;23.92;99840.38;5128401;27;20069;-65
2021/12/28 03:57:06;;;;;;;3.38;1.85;;;;;;;18.34;23.86;99846.72;5116232;27;20051;-65
2021/12/28 03:59:32;;;;;;;3.08;2.25;;;;;;;18.33;23.91;99847.72;5131696;27;20091;-66
2021/12/28 04:01:57;;;;;;;3.00;2.17;;;;;;;18.34;23.91;99841.38;5132066;27;20031;-67
2021/12/28 04:04:24;;;;;;;3.40;2.13;;;;;;;18.32;24.01;99848.72;5133272;27;20039;-65
2021/12/28 04:06:50;;;;;;;3.50;2.20;;;;;;;18.32;23.69;99843.38;5133095;27;20034;-68
2021/12/28 04:09:23;;;;;;;3.53;1.90;;;;;;;18.29;23.75;99848.06;5133393;27;20027;-67
2021/12/28 04:11:49;;;;;;;2.50;2.03;;;;;;;18.29;23.94;99847.22;5131770;27;20031;-66
2021/12/28 04:14:15;;;;;;;2.85;2.22;;;;;;;18.30;24.41;99848.91;5132378;27;20027;-68
2021/12/28 04:16:41;;;;;;;3.00;2.13;;;;;;;18.29;24.17;99852.56;5132797;27;20512;-66
2021/12/28 04:19:07;;;;;;;2.47;2.00;;;;;;;18.29;24.04;99849.91;5132603;27;20059;-68
2021/12/28 04:21:35;;;;;;;3.17;1.90;;;;;;;18.29;24.23;99836.50;5132933;27;20023;-65
2021/12/28 04:24:01;;;;;;;2.38;1.92;;;;;;;18.27;24.00;99842.03;5129035;27;20039;-69
2021/12/28 04:26:28;;;;;;;3.42;2.47;;;;;;;18.28;24.06;99848.22;5131818;27;20061;-67
2021/12/28 04:28:55;;;;;;;3.20;1.90;;;;;;;18.27;23.91;99847.41;5124494;27;20066;-68
2021/12/28 04:31:21;;;;;;;4.25;2.58;;;;;;;18.29;24.15;99850.75;5132307;27;20031;-66
2021/12/28 04:33:46;;;;;;;3.28;2.50;;;;;;;18.31;23.94;99847.91;5132214;28;20106;-68
2021/12/28 04:36:14;;;;;;;2.63;2.10;;;;;;;18.30;23.95;99844.41;5131835;28;20070;-68
2021/12/28 04:38:42;;;;;;;3.35;1.98;;;;;;;18.31;24.08;99845.22;5132144;28;20118;-65
2021/12/28 04:41:09;;;;;;;4.00;2.35;;;;;;;18.32;23.89;99856.75;5133119;28;20023;-66
2021/12/28 04:43:35;;;;;;;3.67;2.03;;;;;;;18.32;24.08;99867.47;5132678;28;20493;-66
2021/12/28 04:46:01;;;;;;;2.90;2.33;;;;;;;18.29;23.87;99861.47;5131836;28;20028;-64
2021/12/28 04:48:27;;;;;;;3.13;2.00;;;;;;;18.31;24.06;99869.31;5131438;28;20084;-65
2021/12/28 04:50:53;;;;;;;2.60;1.95;;;;;;;18.32;23.75;99862.97;5132032;28;20027;-67
2021/12/28 04:53:19;;;;;;;3.38;1.92;;;;;;;18.33;24.00;99872.69;5129282;27;20122;-65
2021/12/28 04:55:47;;;;;;;3.05;2.05;;;;;;;18.33;23.87;99874.50;5132348;28;20793;-67
2021/12/28 04:58:13;;;;;;;2.50;2.00;;;;;;;18.30;23.74;99871.19;5132136;28;20027;-65
2021/12/28 05:00:41;;;;;;;3.38;2.22;;;;;;;18.28;23.57;99875.84;5132297;28;20038;-66
2021/12/28 05:03:06;;;;;;;3.13;2.33;;;;;;;18.26;23.47;99880.53;5116866;28;20461;-66
2021/12/28 05:05:33;;;;;;;3.65;2.10;;;;;;;18.24;23.33;99877.19;5131921;28;20118;-65
2021/12/28 05:07:58;;;;;;;3.58;2.25;;;;;;;18.23;23.69;99883.53;5131653;28;20512;-67
2021/12/28 05:10:24;;;;;;;3.50;2.35;;;;;;;18.20;23.53;99891.88;5132751;28;20023;-65
2021/12/28 05:12:51;;;;;;;3.65;2.42;;;;;;;18.21;23.84;99887.38;5130935;28;20030;-68
2021/12/28 05:15:18;;;;;;;2.70;1.85;;;;;;;18.21;23.95;99900.78;5132522;28;20023;-66
2021/12/28 05:17:43;;;;;;;3.22;2.70;;;;;;;18.22;23.72;99905.13;5131616;28;20071;-65
2021/12/28 05:20:10;;;;;;;2.78;2.00;;;;;;;18.21;24.05;99903.47;5132447;28;20059;-68
2021/12/28 05:22:35;;;;;;;4.30;2.28;;;;;;;18.19;24.03;99908.13;5131874;28;20027;-67
2021/12/28 05:25:01;;;;;;;3.15;1.80;;;;;;;18.20;24.09;99913.31;5132320;28;20038;-64
2021/12/28 05:27:27;;;;;;;2.92;1.90;;;;;;;18.18;23.74;99915.31;5131900;27;20443;-65
2021/12/28 05:29:52;;;;;;;3.63;2.25;;;;;;;18.17;23.97;99913.63;5132488;28;20215;-65
2021/12/28 05:32:18;;;;;;;2.97;2.22;;;;;;;18.18;23.83;99917.16;5132467;28;20031;-66
2021/12/28 05:34:44;;;;;;;2.55;2.10;;;;;;;18.20;23.85;99920.53;5131962;28;20031;-66
2021/12/28 05:37:10;;;;;;;2.67;2.05;;;;;;;18.20;23.51;99921.34;5131565;27;20042;-65
2021/12/28 05:39:36;;;;;;;2.67;2.00;;;;;;;18.20;23.64;99926.72;5134427;27;20053;-64
2021/12/28 05:42:03;;;;;;;3.63;2.70;;;;;;;18.17;23.75;99927.03;5135228;27;20034;-67
2021/12/28 05:44:28;;;;;;;3.20;2.17;;;;;;;18.20;23.63;99934.75;5136404;27;20111;-65
2021/12/28 05:46:54;;;;;;;3.90;2.33;;;;;;;18.22;23.78;99931.91;5135628;27;20034;-69
2021/12/28 05:49:21;;;;;;;2.83;2.28;;;;;;;18.21;23.77;99931.06;5135056;27;20027;-66
2021/12/28 05:51:47;;;;;;;2.35;1.92;;;;;;;18.22;23.43;99923.88;5134765;27;20198;-67
2021/12/28 05:54:13;;;;;;;3.67;1.95;;;;;;;18.19;23.51;99919.66;5136242;27;20422;-66
2021/12/28 05:56:39;;;;;;;3.28;2.22;;;;;;;18.20;23.50;99936.59;5135252;27;20409;-65
2021/12/28 05:59:04;;;;;;;3.47;1.95;;;;;;;18.19;23.57;99921.53;5135408;27;20039;-66
2021/12/28 06:01:30;;;;;;;3.30;1.95;;;;;;;18.18;23.40;99934.06;5135259;27;20432;-67
2021/12/28 06:03:56;;;;;;;3.63;2.35;;;;;;;18.19;23.59;99938.41;5132418;27;20469;-65
2021/12/28 06:06:21;;;;;;;2.95;2.10;;;;;;;18.18;23.52;99931.38;5115455;27;20137;-63
2021/12/28 06:08:47;;;;;;;3.30;2.25;;;;;;;18.16;23.63;99928.00;5135358;27;20030;-66
2021/12/28 06:11:13;;;;;;;4.05;2.50;;;;;;;18.19;23.51;99929.56;5135239;27;20167;-65
2021/12/28 06:13:41;;;;;;;3.45;2.60;;;;;;;18.19;23.65;99925.03;5134603;27;20023;-64
2021/12/28 06:16:09;;;;;;;3.00;2.15;;;;;;;18.18;23.62;99923.34;5135424;27;20053;-66
2021/12/28 06:18:34;;;;;;;3.88;2.60;;;;;;;18.19;23.57;99927.69;5134357;27;20125;-65
2021/12/28 06:21:00;;;;;;;3.03;2.42;;;;;;;18.19;23.97;99927.69;5134950;27;20170;-67
2021/12/28 06:23:25;;;;;;;3.10;2.30;;;;;;;18.17;24.03;99921.66;5134179;27;20121;-65
2021/12/28 06:25:51;;;;;;;3.13;2.38;;;;;;;18.19;23.60;99929.56;5133974;27;20027;-65
2021/12/28 06:28:17;;;;;;;4.13;2.60;;;;;;;18.19;23.44;99938.41;5133312;27;20401;-64
2021/12/28 06:30:42;;;;;;;4.55;2.67;;;;;;;18.20;23.45;99936.59;5133485;27;20041;-65
2021/12/28 06:33:08;;;;;;;2.88;2.22;;;;;;;18.17;23.85;99943.09;5133895;27;20072;-66
2021/12/28 06:35:33;;;;;;;2.70;2.20;;;;;;;18.16;23.63;99941.41;5134033;27;20050;-64
2021/12/28 06:37:59;;;;;;;4.38;2.58;;;;;;;18.16;23.90;99944.09;5134625;27;20031;-66
2021/12/28 06:40:25;;;;;;;4.03;2.38;;;;;;;18.17;23.71;99944.94;5134332;27;20035;-66
2021/12/28 06:42:50;;;;;;;4.65;2.78;;;;;;;18.20;23.51;99949.97;5103180;27;20118;-66
2021/12/28 06:45:16;;;;;;;4.05;2.50;;;;;;;18.20;23.69;99955.34;5132065;27;20426;-68
2021/12/28 06:47:42;;;;;;;4.15;2.65;;;;;;;18.22;23.64;99956.03;5134187;27;20027;-65
2021/12/28 06:50:08;;;;;;;3.90;3.08;;;;;;;18.20;23.82;99961.53;5134184;27;20038;-65
2021/12/28 06:52:33;;;;;;;4.57;2.60;;;;;;;18.20;23.58;99966.88;5133619;27;20045;-65
2021/12/28 06:54:59;;;;;;;3.80;2.55;;;;;;;18.20;23.76;99953.50;5133345;27;20408;-67
2021/12/28 06:57:25;;;;;;;3.38;2.53;;;;;;;18.23;23.86;99969.25;5134261;27;20034;-64
2021/12/28 06:59:50;;;;;;;5.00;2.28;;;;;;;18.24;23.84;99970.06;5134239;27;20031;-66
2021/12/28 07:02:17;;;;;;;3.70;2.75;;;;;;;18.24;23.67;99970.94;5133747;27;20023;-67
2021/12/28 07:04:43;;;;;;;3.45;2.53;;;;;;;18.25;23.78;99977.97;5133468;27;20111;-65
2021/12/28 07:07:09;;;;;;;4.13;2.42;;;;;;;18.26;23.73;99974.28;5133883;27;20114;-68
2021/12/28 07:09:35;;;;;;;3.80;2.65;;;;;;;18.26;23.76;99973.44;5134321;27;20030;-66
2021/12/28 07:12:02;;;;;;;3.97;2.40;;;;;;;18.26;23.73;99982.31;5133656;27;20208;-66
2021/12/28 07:14:30;;;;;;;4.55;2.40;;;;;;;18.25;23.91;99980.63;5133644;27;20038;-67
2021/12/28 07:16:58;;;;;;;3.65;2.50;;;;;;;18.28;23.96;99985.69;5117770;27;20088;-65
2021/12/28 07:19:24;;;;;;;2.72;2.17;;;;;;;18.32;23.91;99990.69;5133462;27;20418;-65
2021/12/28 07:21:50;;;;;;;2.75;1.88;;;;;;;18.34;23.92;99994.06;5132982;27;20494;-65
2021/12/28 07:24:16;;;;;;;3.67;2.20;;;;;;;18.36;24.12;99986.72;5133080;27;20034;-67
2021/12/28 07:26:42;;;;;;;2.88;2.03;;;;;;;18.39;24.26;99997.94;5134609;27;20114;-66
2021/12/28 07:29:09;;;;;;;3.42;1.98;;;;;;;18.42;24.18;99994.94;5133410;27;20383;-65
2021/12/28 07:31:35;;;;;;;3.58;2.90;;;;;;;18.44;24.17;99998.31;5133598;27;20455;-66
2021/12/28 07:34:00;;;;;;;3.03;2.13;;;;;;;18.45;24.20;100008.03;5134093;27;20035;-66
2021/12/28 07:36:26;;;;;;;2.90;1.95;;;;;;;18.47;24.22;100004.34;5113865;27;20465;-67
2021/12/28 07:38:52;;;;;;;2.85;2.10;;;;;;;18.48;24.15;100004.16;5133172;27;20030;-65
2021/12/28 07:41:17;;;;;;;3.92;2.30;;;;;;;18.49;24.20;100007.69;5110503;28;20391;-66
2021/12/28 07:43:43;;;;;;;4.25;2.33;;;;;;;18.51;24.15;100014.56;5120812;27;20119;-65
2021/12/28 07:46:09;;;;;;;3.22;2.15;;;;;;;18.54;24.21;100011.56;5119871;27;20042;-67
2021/12/28 07:48:35;;;;;;;2.85;2.08;;;;;;;18.53;24.39;100015.25;5134084;27;20066;-66
2021/12/28 07:51:00;;;;;;;3.55;2.47;;;;;;;18.54;24.52;100006.22;5132538;27;20035;-65
2021/12/28 07:53:26;;;;;;;2.88;2.15;;;;;;;18.56;24.51;100020.28;5132721;27;20039;-65
2021/12/28 07:55:52;;;;;;;3.22;2.17;;;;;;;18.61;24.44;100022.50;5133607;27;20035;-65
2021/12/28 07:58:17;;;;;;;5.53;2.30;;;;;;;18.63;24.55;100019.63;5125738;27;20127;-66
2021/12/28 08:00:43;;;;;;;3.58;2.60;;;;;;;18.64;24.71;100018.63;5132791;27;20401;-67
2021/12/28 08:03:09;;;;;;;3.00;2.30;;;;;;;18.68;24.71;100017.31;5133167;27;20031;-68
2021/12/28 08:05:36;;;;;;;4.05;2.30;;;;;;;18.73;24.54;100013.16;5115095;27;20019;-67
2021/12/28 08:08:02;;;;;;;4.05;2.80;;;;;;;18.76;24.61;100017.34;5132673;27;20038;-65
2021/12/28 08:10:29;;;;;;;4.47;2.60;;;;;;;18.77;24.55;100008.28;5129572;27;20050;-68
2021/12/28 08:12:56;;;;;;;3.13;2.35;;;;;;;18.82;24.64;100010.50;5102558;27;20505;-66
2021/12/28 08:15:24;;;;;;;4.57;2.60;;;;;;;18.84;24.49;100012.00;5114380;27;20710;-67
2021/12/28 08:17:50;;;;;;;4.03;2.78;;;;;;;18.87;24.57;100002.78;5133421;27;20051;-66
2021/12/28 08:20:17;;;;;;;3.53;2.42;;;;;;;18.88;24.71;100015.19;5132905;27;20083;-66
2021/12/28 08:22:44;;;;;;;3.67;2.53;;;;;;;18.90;24.55;100016.72;5132313;27;20031;-67
2021/12/28 08:25:12;;;;;;;5.50;2.90;;;;;;;18.91;24.66;100015.72;5131377;27;20038;-66
2021/12/28 08:27:39;;;;;;;3.97;2.90;;;;;;;18.95;24.52;100013.59;5131927;27;20407;-68
2021/12/28 08:30:05;;;;;;;3.00;1.90;;;;;;;18.98;24.65;100009.72;5131656;27;20027;-68
2021/12/28 08:32:30;;;;;;;3.13;2.47;;;;;;;18.99;24.67;100024.81;5101163;28;20031;-67
2021/12/28 08:34:56;;;;;;;3.45;2.17;;;;;;;19.00;24.58;100023.81;5113034;28;20030;-66
2021/12/28 08:37:21;;;;;;;3.08;2.42;;;;;;;19.00;24.74;100013.09;5112779;28;20032;-67
2021/12/28 08:39:47;;;;;;;4.22;2.50;;;;;;;19.04;24.62;100011.78;5094137;28;20034;-66
2021/12/28 08:42:13;;;;;;;4.45;2.30;;;;;;;19.05;24.63;100016.09;5121571;28;20042;-66
2021/12/28 08:44:38;;;;;;;3.60;2.40;;;;;;;19.08;24.76;100012.28;5133069;28;20023;-68
2021/12/28 08:47:04;;;;;;;3.80;2.13;;;;;;;19.11;24.76;100015.44;5133274;28;20027;-67
2021/12/28 08:49:30;;;;;;;3.28;2.17;;;;;;;19.13;24.69;100012.59;5114535;28;20027;-67
2021/12/28 08:51:55;;;;;;;4.38;2.70;;;;;;;19.13;24.71;100016.13;5132575;28;20031;-66
2021/12/28 08:54:21;;;;;;;3.63;2.20;;;;;;;19.13;24.74;100016.13;5129323;28;20439;-69
2021/12/28 08:56:50;;;;;;;3.88;2.80;;;;;;;19.11;24.67;100012.78;5112255;28;20078;-66
2021/12/28 08:59:16;;;;;;;4.75;3.13;;;;;;;19.10;24.57;100012.94;5112344;28;20490;-67
2021/12/28 09:01:42;;;;;;;3.47;2.20;;;;;;;19.11;24.86;100031.53;5116608;28;20034;-66
2021/12/28 09:04:07;;;;;;;3.78;2.53;;;;;;;19.11;24.90;100015.44;5128197;28;20046;-66
2021/12/28 09:06:33;;;;;;;4.10;3.00;;;;;;;19.11;25.16;100026.19;5132507;28;20545;-66
2021/12/28 09:08:58;;;;;;;4.43;3.13;;;;;;;19.16;24.93;100023.00;5132796;28;20149;-66
2021/12/28 09:11:24;;;;;;;4.78;3.03;;;;;;;19.15;24.74;100024.84;5131968;28;20023;-65
2021/12/28 09:13:50;;;;;;;6.68;3.38;;;;;;;19.14;24.65;100028.53;5125672;27;20031;-66
2021/12/28 09:16:16;;;;;;;5.10;3.50;;;;;;;19.13;24.48;100028.69;5131551;27;20046;-66
2021/12/28 09:18:42;;;;;;;8.50;3.92;;;;;;;19.15;24.47;100027.53;5124006;27;20055;-66
2021/12/28 09:21:07;;;;;;;7.35;3.63;;;;;;;19.18;24.47;100023.69;5132555;27;20164;-66
2021/12/28 09:23:33;;;;;;;7.88;3.80;;;;;;;19.20;24.19;100030.53;5120702;27;20091;-65
2021/12/28 09:25:59;;;;;;;5.88;3.30;;;;;;;19.22;24.09;100030.41;5128356;27;20114;-66
2021/12/28 09:28:25;;;;;;;6.35;4.07;;;;;;;19.21;24.06;100032.22;5127314;27;20023;-66
2021/12/28 09:30:50;;;;;;;4.00;3.08;;;;;;;19.22;24.11;100030.41;5136314;27;20111;-68
2021/12/28 09:33:16;;;;;;;7.70;3.53;;;;;;;19.25;23.99;100019.34;5136094;27;20156;-69
2021/12/28 09:35:42;;;;;;;5.63;3.70;;;;;;;19.28;23.99;100018.16;5135369;27;20500;-69
2021/12/28 09:38:08;;;;;;;5.22;3.40;;;;;;;19.28;23.94;100023.53;5135787;27;20041;-67
2021/12/28 09:40:35;;;;;;;7.70;3.30;;;;;;;19.26;24.06;100025.53;5136471;27;20047;-67
2021/12/28 09:43:05;;;;;;;5.32;3.42;;;;;;;19.27;24.05;100022.66;5134950;27;20035;-67
2021/12/28 09:45:32;;;;;;;5.57;3.53;;;;;;;19.29;23.96;100025.22;5135887;27;20489;-67
2021/12/28 09:47:58;;;;;;;5.85;3.65;;;;;;;19.31;24.02;100029.41;5130143;27;20035;-66
2021/12/28 09:50:25;;;;;;;5.90;3.53;;;;;;;19.33;24.03;100027.38;5136223;27;20031;-66
2021/12/28 09:52:51;;;;;;;7.10;3.90;;;;;;;19.36;24.01;100026.22;5136238;27;20114;-66
2021/12/28 09:55:21;;;;;;;7.07;3.80;;;;;;;19.30;24.03;100016.16;5129124;27;20110;-66
2021/12/28 09:57:47;;;;;;;8.55;3.53;;;;;;;19.26;24.03;100030.91;5122832;27;20031;-66
2021/12/28 10:00:14;;;;;;;6.50;3.20;;;;;;;19.23;24.34;100028.53;5124351;27;20070;-65
2021/12/28 10:02:40;;;;;;;7.03;3.30;;;;;;;19.20;24.20;100035.09;5130082;27;20038;-67
2021/12/28 10:05:07;;;;;;;5.82;3.50;;;;;;;19.19;24.42;100041.47;5135976;27;20039;-66
2021/12/28 10:07:37;;;;;;;5.80;3.90;;;;;;;19.18;24.45;100047.81;5123896;27;20050;-66
2021/12/28 10:10:07;;;;;;;6.40;3.85;;;;;;;19.18;24.65;100047.81;5115399;28;20077;-66
2021/12/28 10:12:39;;;;;;;5.28;3.85;;;;;;;19.17;24.70;100052.34;5121906;27;20043;-67
2021/12/28 10:15:09;;;;;;;5.18;3.45;;;;;;;19.18;24.78;100050.50;5131532;27;20058;-66
2021/12/28 10:17:35;;;;;;;4.55;3.35;;;;;;;19.16;24.92;100048.00;5132034;27;20580;-66
2021/12/28 10:20:19;;;;;;;5.47;3.60;;;;;;;19.15;24.81;100059.72;5116102;27;20086;-66
2021/12/28 10:22:48;;;;;;;5.53;3.53;;;;;;;19.18;24.83;100063.91;5130158;27;20050;-65
2021/12/28 10:25:24;;;;;;;10.18;3.70;;;;;;;19.19;24.55;100058.38;5126668;27;20039;-66
2021/12/28 10:28:11;;;;;;;8.27;3.35;;;;;;;19.19;25.03;100053.00;5128494;27;20054;-64
2021/12/28 10:30:41;;;;;;;6.25;3.70;;;;;;;19.19;24.77;100060.22;5128271;27;20102;-64
2021/12/28 10:33:09;;;;;;;6.35;3.90;;;;;;;19.16;25.01;100056.03;5134842;27;20442;-64
2021/12/28 10:35:39;;;;;;;6.47;3.33;;;;;;;19.15;24.94;100062.41;5135007;27;20478;-65
2021/12/28 10:38:09;;;;;;;4.97;3.42;;;;;;;19.12;25.05;100070.78;5133462;27;20027;-65
2021/12/28 10:40:43;;;;;;;5.85;3.88;;;;;;;19.10;24.89;100075.47;5134982;27;20023;-65
2021/12/28 10:43:14;;;;;;;8.02;4.85;;;;;;;19.09;24.95;100079.16;5133875;27;20047;-65
2021/12/28 10:45:50;;;;;;;6.93;3.85;;;;;;;19.07;24.97;100075.78;5134070;27;20039;-65
2021/12/28 10:48:22;;;;;;;6.18;4.00;;;;;;;19.06;24.90;100074.09;5121022;27;20048;-65
2021/12/28 10:51:02;;;;;;;6.60;3.97;;;;;;;19.06;24.87;100076.78;5114945;28;20031;-65
2021/12/28 10:54:00;;;;;;;4.57;3.42;;;;;;;19.01;25.06;100076.44;5114545;28;20108;-65
2021/12/28 10:56:32;;;;;;;6.18;3.72;;;;;;;19.00;24.96;100074.78;5123839;27;20039;-65
2021/12/28 10:58:58;;;;;;;6.35;3.42;;;;;;;18.99;25.09;100071.22;5122747;27;20075;-64
2021/12/28 11:01:27;;;;;;;5.55;3.15;;;;;;;18.99;24.86;100075.78;5133851;27;20516;-64
2021/12/28 11:03:57;;;;;;;5.90;3.30;;;;;;;19.00;24.95;100056.00;5133423;27;20097;-64
2021/12/28 11:06:23;;;;;;;5.15;2.53;;;;;;;19.00;25.15;100064.03;5133279;27;20031;-64
2021/12/28 11:08:52;;;;;;;5.63;2.90;;;;;;;18.97;25.05;100065.19;5134405;27;20115;-64
2021/12/28 11:11:21;;;;;;;4.53;2.92;;;;;;;18.97;24.73;100065.19;5133620;27;20090;-65
2021/12/28 11:13:47;;;;;;;5.38;3.22;;;;;;;18.96;24.82;100068.03;5133853;27;20041;-64
2021/12/28 11:16:15;;;;;;;6.15;3.20;;;;;;;18.95;24.82;100066.38;5134642;27;20034;-64
2021/12/28 11:18:45;;;;;;;5.28;2.92;;;;;;;18.92;24.49;100068.34;5133865;27;20082;-64
2021/12/28 11:21:16;;;;;;;4.55;3.28;;;;;;;18.94;24.88;100070.91;5130323;27;20027;-64
2021/12/28 11:23:44;;;;;;;3.95;2.85;;;;;;;18.91;24.95;100079.22;5133317;27;20039;-64
2021/12/28 11:26:28;;;;;;;3.70;2.72;;;;;;;18.90;24.97;100080.22;5111875;28;20035;-65
2021/12/28 11:29:07;;;;;;;4.65;3.22;;;;;;;18.91;25.00;100065.81;5133825;27;20057;-64
2021/12/28 11:31:38;;;;;;;4.70;2.92;;;;;;;18.90;24.93;100069.50;5134382;27;20118;-63